createdAt,value
2023-01-19T00:01:32.928Z,18.90
2023-01-19T00:04:06.025Z,17.10
2023-01-19T00:06:39.434Z,18.70
2023-01-19T00:09:12.633Z,15.50
2023-01-19T00:11:45.758Z,17.40
2023-01-19T00:14:19.822Z,16.60
2023-01-19T00:16:53.046Z,12.10
2023-01-19T00:19:26.261Z,16.80
2023-01-19T00:21:59.176Z,19.20
2023-01-19T00:24:32.817Z,14.50
2023-01-19T00:27:06.370Z,15.90
2023-01-19T00:29:39.800Z,16.70
2023-01-19T00:32:12.382Z,12.70
2023-01-19T00:34:50.229Z,15.50
2023-01-19T00:37:23.439Z,11.90
2023-01-19T00:39:56.487Z,15.30
2023-01-19T00:42:41.990Z,14.70
2023-01-19T00:45:19.006Z,12.90
2023-01-19T00:47:58.815Z,13.60
2023-01-19T00:50:34.199Z,16.60
2023-01-19T00:53:07.782Z,15.90
2023-01-19T00:55:41.067Z,12.50
2023-01-19T00:58:14.425Z,13.00
2023-01-19T01:00:47.553Z,13.60
2023-01-19T01:03:20.731Z,14.70
2023-01-19T01:05:54.113Z,15.20
2023-01-19T01:08:27.790Z,17.30
2023-01-19T01:11:01.075Z,13.70
2023-01-19T01:13:36.191Z,12.50
2023-01-19T01:16:10.326Z,17.00
2023-01-19T01:18:43.897Z,17.40
2023-01-19T01:21:17.380Z,17.70
2023-01-19T01:23:51.258Z,13.70
2023-01-19T01:26:27.014Z,13.80
2023-01-19T01:29:00.621Z,14.20
2023-01-19T01:31:33.904Z,12.40
2023-01-19T01:34:07.828Z,14.80
2023-01-19T01:36:41.164Z,11.80
2023-01-19T01:39:15.110Z,13.70
2023-01-19T01:41:48.655Z,15.40
2023-01-19T01:44:55.269Z,17.00
2023-01-19T01:47:43.554Z,11.90
2023-01-19T01:50:25.708Z,15.30
2023-01-19T01:53:17.771Z,17.00
2023-01-19T01:58:25.031Z,17.20
2023-01-19T02:01:17.312Z,16.30
2023-01-19T02:03:51.104Z,15.50
2023-01-19T02:06:24.487Z,14.00
2023-01-19T02:09:28.941Z,13.90
2023-01-19T02:12:21.530Z,13.10
2023-01-19T02:14:55.972Z,14.60
2023-01-19T02:17:29.524Z,15.70
2023-01-19T02:20:02.672Z,15.30
2023-01-19T02:22:43.411Z,16.10
2023-01-19T02:25:16.896Z,20.30
2023-01-19T02:27:51.037Z,16.60
2023-01-19T02:30:24.656Z,13.60
2023-01-19T02:32:58.061Z,16.10
2023-01-19T02:35:33.247Z,12.10
2023-01-19T02:38:08.401Z,11.90
2023-01-19T02:40:44.631Z,14.90
2023-01-19T02:43:20.393Z,16.50
2023-01-19T02:45:53.662Z,14.50
2023-01-19T02:48:26.758Z,16.50
2023-01-19T02:51:05.629Z,15.50
2023-01-19T02:54:04.948Z,13.70
2023-01-19T02:56:49.062Z,16.40
2023-01-19T02:59:37.822Z,15.90
2023-01-19T03:02:28.340Z,15.70
2023-01-19T03:05:22.757Z,15.90
2023-01-19T03:08:30.582Z,20.30
2023-01-19T03:11:13.810Z,16.20
2023-01-19T03:13:49.190Z,15.10
2023-01-19T03:16:23.458Z,11.80
2023-01-19T03:19:04.421Z,16.00
2023-01-19T03:21:40.848Z,14.10
2023-01-19T03:24:17.250Z,19.20
2023-01-19T03:27:00.958Z,19.70
2023-01-19T03:29:37.222Z,18.10
2023-01-19T03:32:14.857Z,17.40
2023-01-19T03:34:51.577Z,17.30
2023-01-19T03:37:30.447Z,19.50
2023-01-19T03:40:04.044Z,15.60
2023-01-19T03:42:39.017Z,17.90
2023-01-19T03:45:14.557Z,15.90
2023-01-19T03:47:48.164Z,18.60
2023-01-19T03:50:31.254Z,23.20
2023-01-19T03:53:10.578Z,22.70
2023-01-19T03:55:49.712Z,21.10
2023-01-19T03:58:23.087Z,23.80
2023-01-19T04:00:56.571Z,29.20
2023-01-19T04:03:29.731Z,17.80
2023-01-19T04:06:03.197Z,21.10
2023-01-19T04:08:36.676Z,27.20
2023-01-19T04:11:12.837Z,18.80
2023-01-19T04:13:45.860Z,23.30
2023-01-19T04:16:21.109Z,21.40
2023-01-19T04:18:54.655Z,23.90
2023-01-19T04:21:27.467Z,23.10
2023-01-19T04:24:01.460Z,23.40
2023-01-19T04:26:34.719Z,25.70
2023-01-19T04:29:07.657Z,28.30
2023-01-19T04:31:41.078Z,23.20
2023-01-19T04:34:14.810Z,24.70
2023-01-19T04:36:51.591Z,24.90
2023-01-19T04:39:26.079Z,26.50
2023-01-19T04:41:59.636Z,23.80
2023-01-19T04:44:33.168Z,22.50
2023-01-19T04:47:07.338Z,29.00
2023-01-19T04:49:40.878Z,25.10
2023-01-19T04:52:14.154Z,24.80
2023-01-19T04:54:47.231Z,24.80
2023-01-19T04:57:20.318Z,25.80
2023-01-19T04:59:54.505Z,23.00
2023-01-19T05:02:28.452Z,27.30
2023-01-19T05:05:01.348Z,22.00
2023-01-19T05:07:35.403Z,28.10
2023-01-19T05:10:10.111Z,24.40
2023-01-19T05:12:43.640Z,28.50
2023-01-19T05:15:16.938Z,29.20
2023-01-19T05:17:50.609Z,41.40
2023-01-19T05:20:23.452Z,34.10
2023-01-19T05:22:56.749Z,27.90
2023-01-19T05:25:29.598Z,28.70
2023-01-19T05:28:03.352Z,28.30
2023-01-19T05:30:36.832Z,31.90
2023-01-19T05:33:10.277Z,27.00
2023-01-19T05:35:43.157Z,19.80
2023-01-19T05:38:20.820Z,27.30
2023-01-19T05:41:00.546Z,25.50
2023-01-19T05:43:33.742Z,32.80
2023-01-19T05:46:07.654Z,22.30
2023-01-19T05:48:40.781Z,32.60
2023-01-19T05:51:14.109Z,28.70
2023-01-19T05:53:48.328Z,27.10
2023-01-19T05:56:22.305Z,23.80
2023-01-19T05:58:56.518Z,28.00
2023-01-19T06:01:30.607Z,23.70
2023-01-19T06:04:04.400Z,31.40
2023-01-19T06:06:37.863Z,23.00
2023-01-19T06:09:11.320Z,23.40
2023-01-19T06:11:45.450Z,23.10
2023-01-19T06:14:18.548Z,29.60
2023-01-19T06:16:52.075Z,24.10
2023-01-19T06:19:26.286Z,27.70
2023-01-19T06:21:59.371Z,30.00
2023-01-19T06:24:33.487Z,33.90
2023-01-19T06:27:07.181Z,27.00
2023-01-19T06:29:40.259Z,30.00
2023-01-19T06:32:13.801Z,24.60
2023-01-19T06:34:48.079Z,22.40
2023-01-19T06:37:20.946Z,20.80
2023-01-19T06:39:53.627Z,26.70
2023-01-19T06:42:26.263Z,34.20
2023-01-19T06:45:00.175Z,28.60
2023-01-19T06:47:34.878Z,29.70
2023-01-19T06:50:09.317Z,22.80
2023-01-19T06:52:43.095Z,29.70
2023-01-19T06:55:16.992Z,25.40
2023-01-19T06:57:58.343Z,27.40
2023-01-19T07:00:32.303Z,22.70
2023-01-19T07:03:08.208Z,28.70
2023-01-19T07:05:41.875Z,26.50
2023-01-19T07:08:16.156Z,28.80
2023-01-19T07:11:25.619Z,27.90
2023-01-19T07:13:45.396Z,31.50
2023-01-19T07:16:19.553Z,32.30
2023-01-19T07:18:53.416Z,32.70
2023-01-19T07:21:28.925Z,29.70
2023-01-19T07:24:04.090Z,26.50
2023-01-19T07:26:37.691Z,23.60
2023-01-19T07:29:11.644Z,27.40
2023-01-19T07:31:44.741Z,21.20
2023-01-19T07:34:18.681Z,24.20
2023-01-19T07:36:52.170Z,27.10
2023-01-19T07:39:26.110Z,24.50
2023-01-19T07:41:59.873Z,33.80
2023-01-19T07:44:33.828Z,27.60
2023-01-19T07:47:12.301Z,40.50
2023-01-19T07:49:45.839Z,39.20
2023-01-19T07:52:19.615Z,34.80
2023-01-19T07:54:52.622Z,19.90
2023-01-19T07:57:25.865Z,23.90
2023-01-19T07:59:59.802Z,23.50
2023-01-19T08:02:34.585Z,20.20
2023-01-19T08:05:08.394Z,22.50
2023-01-19T08:07:41.955Z,24.40
2023-01-19T08:10:16.250Z,28.10
2023-01-19T08:12:49.637Z,25.80
2023-01-19T08:15:24.618Z,24.40
2023-01-19T08:18:10.531Z,23.90
2023-01-19T08:20:44.034Z,27.00
2023-01-19T08:23:20.051Z,26.50
2023-01-19T08:25:54.130Z,26.40
2023-01-19T08:28:28.044Z,26.10
2023-01-19T08:31:18.193Z,27.00
2023-01-19T08:33:54.830Z,25.40
2023-01-19T08:36:29.900Z,25.90
2023-01-19T08:39:03.173Z,32.20
2023-01-19T08:41:36.098Z,26.20
2023-01-19T08:44:09.867Z,32.20
2023-01-19T08:46:43.956Z,26.60
2023-01-19T08:49:17.492Z,27.60
2023-01-19T08:51:51.168Z,28.60
2023-01-19T08:54:24.999Z,34.10
2023-01-19T08:56:58.916Z,30.30
2023-01-19T08:59:32.002Z,28.70
2023-01-19T09:02:05.220Z,25.60
2023-01-19T09:04:38.720Z,27.40
2023-01-19T09:07:12.280Z,24.20
2023-01-19T09:09:46.006Z,25.70
2023-01-19T09:12:20.584Z,30.80
2023-01-19T09:14:53.686Z,31.40
2023-01-19T09:17:27.822Z,19.70
2023-01-19T09:20:01.005Z,28.70
2023-01-19T09:22:34.383Z,26.00
2023-01-19T09:25:08.002Z,37.00
2023-01-19T09:27:41.649Z,20.80
2023-01-19T09:30:15.357Z,24.90
2023-01-19T09:32:48.929Z,20.50
2023-01-19T09:35:22.445Z,25.50
2023-01-19T09:37:57.035Z,30.00
2023-01-19T09:40:31.203Z,25.30
2023-01-19T09:43:28.121Z,29.20
2023-01-19T09:46:46.851Z,20.80
2023-01-19T09:49:33.731Z,23.00
2023-01-19T09:52:07.866Z,28.20
2023-01-19T09:54:50.356Z,25.30
2023-01-19T09:57:24.791Z,23.70
2023-01-19T10:00:00.290Z,28.60
2023-01-19T10:03:02.519Z,22.80
2023-01-19T10:05:51.670Z,36.30
2023-01-19T10:08:38.033Z,32.40
2023-01-19T10:11:51.941Z,24.70
2023-01-19T10:15:04.705Z,26.20
2023-01-19T10:17:52.001Z,23.70
2023-01-19T10:20:34.014Z,33.50
2023-01-19T10:23:21.363Z,29.70
2023-01-19T10:25:55.227Z,27.00
2023-01-19T10:28:30.239Z,27.60
2023-01-19T10:31:05.629Z,27.50
2023-01-19T10:33:40.409Z,30.30
2023-01-19T10:36:28.125Z,28.90
2023-01-19T10:39:01.296Z,26.40
2023-01-19T10:41:47.783Z,41.70
2023-01-19T10:44:52.974Z,40.50
2023-01-19T10:47:33.821Z,26.20
2023-01-19T10:50:31.124Z,38.90
2023-01-19T10:53:08.404Z,30.30
2023-01-19T10:55:43.148Z,34.60
2023-01-19T10:58:32.768Z,32.20
2023-01-19T11:01:21.139Z,28.20
2023-01-19T11:03:57.586Z,32.00
2023-01-19T11:06:32.052Z,39.00
2023-01-19T11:09:18.009Z,32.40
2023-01-19T11:11:56.279Z,35.20
2023-01-19T11:14:33.034Z,28.30
2023-01-19T11:17:06.407Z,26.10
2023-01-19T11:19:39.675Z,31.80
2023-01-19T11:22:27.898Z,28.90
2023-01-19T11:25:06.860Z,34.90
2023-01-19T11:27:40.763Z,37.50
2023-01-19T11:30:20.581Z,33.60
2023-01-19T11:32:56.804Z,24.30
2023-01-19T11:35:41.193Z,26.20
2023-01-19T11:38:20.986Z,34.90
2023-01-19T11:41:01.062Z,29.60
2023-01-19T11:43:48.219Z,31.80
2023-01-19T11:46:28.941Z,21.70
2023-01-19T11:49:15.479Z,29.30
2023-01-19T11:52:15.512Z,30.90
2023-01-19T11:55:15.066Z,26.60
2023-01-19T11:57:54.473Z,28.40
2023-01-19T12:00:36.127Z,30.40
2023-01-19T12:03:15.624Z,32.60
2023-01-19T12:05:59.446Z,39.50
2023-01-19T12:08:46.347Z,40.20
2023-01-19T12:11:32.365Z,32.80
2023-01-19T12:14:07.035Z,30.90
2023-01-19T12:16:42.557Z,25.30
2023-01-19T12:19:32.469Z,27.10
2023-01-19T12:22:07.455Z,27.90
2023-01-19T12:24:55.384Z,28.20
2023-01-19T12:27:49.015Z,31.60
2023-01-19T12:30:31.527Z,30.80
2023-01-19T12:33:25.634Z,30.50
2023-01-19T12:36:02.898Z,29.80
2023-01-19T12:38:53.447Z,28.80
2023-01-19T12:41:35.612Z,30.90
2023-01-19T12:44:16.798Z,27.40
2023-01-19T12:47:08.691Z,26.00
2023-01-19T12:49:41.602Z,26.20
2023-01-19T12:52:17.180Z,35.40
2023-01-19T12:55:38.679Z,30.60
2023-01-19T12:58:19.187Z,31.80
2023-01-19T13:01:12.457Z,33.40
2023-01-19T13:04:10.819Z,35.40
2023-01-19T13:06:52.906Z,28.50
2023-01-19T13:09:39.988Z,33.30
2023-01-19T13:12:23.361Z,36.20
2023-01-19T13:15:29.615Z,38.70
2023-01-19T13:18:05.027Z,34.40
2023-01-19T13:21:05.378Z,32.40
2023-01-19T13:23:56.247Z,23.10
2023-01-19T13:26:39.448Z,31.50
2023-01-19T13:29:18.215Z,36.90
2023-01-19T13:31:56.230Z,34.60
2023-01-19T13:34:32.094Z,35.50
2023-01-19T13:37:06.789Z,35.00
2023-01-19T13:39:45.420Z,30.50
2023-01-19T13:42:35.941Z,35.00
2023-01-19T13:45:29.104Z,32.60
2023-01-19T13:48:05.269Z,31.50
2023-01-19T13:50:40.557Z,30.20
2023-01-19T13:53:25.110Z,34.00
2023-01-19T13:56:21.247Z,36.30
2023-01-19T13:59:19.361Z,35.40
2023-01-19T14:01:54.917Z,38.40
2023-01-19T14:04:30.831Z,30.00
2023-01-19T14:07:28.228Z,29.20
2023-01-19T14:10:14.637Z,32.20
2023-01-19T14:12:59.084Z,41.10
2023-01-19T14:15:36.603Z,25.10
2023-01-19T14:18:30.643Z,34.60
2023-01-19T14:21:09.686Z,27.30
2023-01-19T14:24:12.471Z,35.20
2023-01-19T14:27:12.655Z,31.00
2023-01-19T14:29:48.007Z,26.70
2023-01-19T14:32:23.891Z,30.30
2023-01-19T14:35:08.288Z,29.60
2023-01-19T14:37:50.893Z,36.90
2023-01-19T14:40:27.700Z,22.60
2023-01-19T14:43:04.712Z,36.80
2023-01-19T14:45:44.831Z,28.10
2023-01-19T14:48:22.435Z,34.90
2023-01-19T14:51:05.213Z,44.30
2023-01-19T14:53:41.742Z,39.10
2023-01-19T14:56:14.830Z,41.20
2023-01-19T14:58:48.242Z,30.50
2023-01-19T15:01:22.016Z,29.00
2023-01-19T15:03:57.329Z,28.00
2023-01-19T15:06:31.051Z,31.20
2023-01-19T15:09:04.985Z,37.50
2023-01-19T15:11:38.618Z,42.90
2023-01-19T15:14:19.500Z,46.60
2023-01-19T15:16:53.882Z,31.60
2023-01-19T15:19:26.857Z,37.20
2023-01-19T15:22:00.530Z,35.60
2023-01-19T15:24:34.345Z,36.80
2023-01-19T15:27:07.585Z,33.60
2023-01-19T15:29:44.164Z,33.30
2023-01-19T15:32:18.217Z,36.40
2023-01-19T15:34:53.144Z,37.10
2023-01-19T15:37:26.980Z,35.20
2023-01-19T15:40:00.214Z,44.20
2023-01-19T15:42:33.969Z,31.20
2023-01-19T15:45:28.647Z,35.20
2023-01-19T15:48:03.192Z,40.40
2023-01-19T15:50:40.712Z,39.90
2023-01-19T15:53:18.362Z,36.40
2023-01-19T15:55:57.341Z,41.00
2023-01-19T15:58:30.488Z,32.60
2023-01-19T16:01:03.986Z,30.90
2023-01-19T16:03:36.824Z,36.60
2023-01-19T16:06:10.818Z,37.20
2023-01-19T16:08:44.446Z,38.50
2023-01-19T16:11:19.085Z,38.60
2023-01-19T16:13:52.677Z,33.30
2023-01-19T16:16:28.725Z,36.40
2023-01-19T16:19:02.367Z,36.20
2023-01-19T16:21:36.276Z,39.20
2023-01-19T16:24:09.694Z,40.10
2023-01-19T16:26:42.613Z,35.00
2023-01-19T16:29:15.954Z,38.40
2023-01-19T16:31:49.589Z,42.20
2023-01-19T16:34:24.784Z,39.30
2023-01-19T16:36:58.486Z,34.30
2023-01-19T16:39:32.226Z,40.60
2023-01-19T16:42:06.253Z,35.50
2023-01-19T16:44:39.891Z,43.10
2023-01-19T16:47:13.289Z,35.80
2023-01-19T16:49:46.373Z,33.60
2023-01-19T16:52:20.199Z,37.50
2023-01-19T16:54:55.197Z,29.40
2023-01-19T16:57:28.823Z,34.40
2023-01-19T17:00:01.978Z,36.70
2023-01-19T17:02:35.522Z,37.50
2023-01-19T17:05:09.192Z,37.00
2023-01-19T17:07:42.606Z,37.40
2023-01-19T17:10:15.756Z,36.40
2023-01-19T17:12:48.584Z,38.20
2023-01-19T17:15:22.221Z,46.60
2023-01-19T17:17:55.953Z,37.80
2023-01-19T17:20:29.263Z,40.00
2023-01-19T17:23:03.055Z,35.30
2023-01-19T17:25:36.394Z,41.40
2023-01-19T17:28:10.274Z,41.50
2023-01-19T17:30:44.116Z,35.80
2023-01-19T17:33:17.859Z,24.30
2023-01-19T17:35:51.696Z,41.60
2023-01-19T17:38:25.101Z,34.00
2023-01-19T17:40:58.787Z,30.20
2023-01-19T17:43:32.157Z,36.00
2023-01-19T17:46:05.303Z,40.00
2023-01-19T17:48:38.595Z,44.60
2023-01-19T17:51:15.527Z,37.50
2023-01-19T17:53:48.387Z,37.20
2023-01-19T17:56:23.936Z,35.60
2023-01-19T17:58:58.308Z,35.00
2023-01-19T18:01:34.255Z,35.80
2023-01-19T18:04:07.844Z,28.70
2023-01-19T18:06:41.968Z,31.60
2023-01-19T18:09:15.378Z,42.10
2023-01-19T18:11:48.808Z,42.50
2023-01-19T18:14:22.016Z,31.90
2023-01-19T18:16:55.437Z,35.40
2023-01-19T18:19:29.583Z,37.40
2023-01-19T18:22:03.191Z,34.10
2023-01-19T18:24:36.508Z,39.20
2023-01-19T18:27:09.201Z,25.90
2023-01-19T18:29:42.467Z,23.80
2023-01-19T18:32:16.357Z,22.80
2023-01-19T18:34:52.751Z,32.00
2023-01-19T18:37:25.678Z,34.30
2023-01-19T18:40:02.580Z,40.40
2023-01-19T18:42:37.163Z,34.40
2023-01-19T18:45:11.166Z,36.50
2023-01-19T18:47:44.684Z,28.90
2023-01-19T18:50:19.323Z,27.70
2023-01-19T18:52:53.670Z,27.20
2023-01-19T18:55:27.055Z,32.40
2023-01-19T18:58:00.386Z,31.40
2023-01-19T19:00:33.903Z,27.60
2023-01-19T19:03:11.245Z,26.40
2023-01-19T19:05:44.721Z,29.60
2023-01-19T19:08:18.321Z,22.90
2023-01-19T19:10:51.281Z,30.10
2023-01-19T19:13:24.851Z,26.20
2023-01-19T19:16:05.964Z,28.00
2023-01-19T19:18:40.429Z,27.00
2023-01-19T19:21:14.864Z,31.00
2023-01-19T19:23:53.683Z,27.20
2023-01-19T19:26:30.413Z,28.60
2023-01-19T19:29:04.817Z,19.40
2023-01-19T19:31:41.160Z,26.40
2023-01-19T19:34:14.244Z,22.80
2023-01-19T19:36:47.100Z,24.70
2023-01-19T19:39:19.997Z,25.80
2023-01-19T19:41:53.175Z,25.00
2023-01-19T19:44:26.242Z,28.60
2023-01-19T19:46:59.408Z,21.20
2023-01-19T19:49:32.517Z,26.40
2023-01-19T19:52:05.267Z,26.00
2023-01-19T19:54:38.399Z,21.00
2023-01-19T19:57:11.129Z,27.00
2023-01-19T19:59:44.303Z,25.30
2023-01-19T20:02:17.209Z,23.50
2023-01-19T20:04:50.268Z,25.00
2023-01-19T20:07:22.975Z,27.30
2023-01-19T20:09:56.235Z,25.60
2023-01-19T20:12:29.056Z,19.50
2023-01-19T20:15:02.166Z,20.40
2023-01-19T20:17:35.631Z,22.60
2023-01-19T20:20:09.420Z,23.30
2023-01-19T20:22:42.122Z,19.80
2023-01-19T20:25:14.792Z,22.00
2023-01-19T20:27:47.861Z,25.00
2023-01-19T20:30:21.173Z,22.00
2023-01-19T20:32:54.860Z,24.00
2023-01-19T20:35:28.489Z,22.80
2023-01-19T20:38:01.901Z,26.80
2023-01-19T20:40:35.673Z,24.30
2023-01-19T20:43:09.186Z,15.90
2023-01-19T20:45:42.436Z,24.90
2023-01-19T20:48:16.121Z,22.50
2023-01-19T20:50:50.084Z,23.70
2023-01-19T20:53:22.456Z,20.50
2023-01-19T20:55:55.100Z,18.60
2023-01-19T20:58:27.568Z,23.50
2023-01-19T21:01:00.438Z,23.00
2023-01-19T21:03:35.442Z,20.60
2023-01-19T21:06:08.562Z,22.40
2023-01-19T21:08:41.453Z,21.00
2023-01-19T21:11:14.421Z,26.00
2023-01-19T21:13:47.359Z,21.70
2023-01-19T21:16:20.427Z,19.50
2023-01-19T21:18:53.370Z,20.20
2023-01-19T21:21:31.822Z,21.50
2023-01-19T21:24:07.315Z,21.10
2023-01-19T21:26:42.040Z,21.60
2023-01-19T21:29:14.474Z,17.60
2023-01-19T21:31:47.354Z,21.80
2023-01-19T21:34:20.579Z,19.10
2023-01-19T21:36:53.597Z,20.10
2023-01-19T21:39:26.768Z,14.60
2023-01-19T21:41:59.974Z,22.80
2023-01-19T21:44:33.183Z,20.40
2023-01-19T21:47:12.515Z,22.30
2023-01-19T21:49:45.852Z,20.90
2023-01-19T21:52:19.302Z,24.10
2023-01-19T21:54:52.637Z,17.40
2023-01-19T21:57:25.778Z,19.60
2023-01-19T21:59:59.110Z,17.60
2023-01-19T22:02:38.628Z,23.10
2023-01-19T22:05:14.262Z,16.10
2023-01-19T22:07:47.904Z,20.70
2023-01-19T22:10:21.758Z,19.60
2023-01-19T22:12:55.746Z,17.40
2023-01-19T22:15:28.846Z,24.50
2023-01-19T22:18:02.207Z,17.50
2023-01-19T22:20:36.863Z,21.80
2023-01-19T22:23:10.070Z,17.80
2023-01-19T22:25:43.015Z,21.60
2023-01-19T22:28:16.204Z,23.00
2023-01-19T22:30:49.392Z,23.80
2023-01-19T22:33:22.941Z,21.70
2023-01-19T22:35:56.243Z,18.70
2023-01-19T22:38:29.582Z,20.70
2023-01-19T22:41:03.010Z,15.60
2023-01-19T22:43:35.852Z,24.10
2023-01-19T22:46:09.016Z,18.70
2023-01-19T22:48:42.147Z,15.40
2023-01-19T22:51:15.554Z,19.70
2023-01-19T22:53:48.427Z,21.00
2023-01-19T22:56:26.162Z,20.80
2023-01-19T22:58:59.595Z,19.20
2023-01-19T23:01:33.881Z,20.50
2023-01-19T23:04:10.754Z,16.00
2023-01-19T23:06:43.897Z,23.30
2023-01-19T23:10:57.377Z,19.30
2023-01-19T23:13:30.006Z,18.20
2023-01-19T23:16:03.029Z,20.10
2023-01-19T23:18:36.336Z,16.90
2023-01-19T23:21:17.381Z,16.30
2023-01-19T23:23:50.223Z,19.90
2023-01-19T23:26:24.062Z,23.60
2023-01-19T23:29:08.229Z,20.40
2023-01-19T23:31:41.883Z,18.00
2023-01-19T23:34:15.441Z,20.30
2023-01-19T23:36:48.775Z,17.90
2023-01-19T23:39:23.687Z,18.90
2023-01-19T23:41:56.705Z,21.50
2023-01-19T23:44:29.890Z,17.80
2023-01-19T23:47:02.794Z,20.60
2023-01-19T23:49:35.954Z,19.00
2023-01-19T23:52:08.996Z,13.70
2023-01-19T23:54:42.409Z,14.70
2023-01-19T23:57:15.498Z,16.60
2023-01-19T23:59:48.339Z,18.60
